createdAt,value
2017-06-02T00:02:12.037Z,18.57
2017-06-02T00:04:38.386Z,18.25
2017-06-02T00:07:04.716Z,18.07
2017-06-02T00:09:31.076Z,17.91
2017-06-02T00:11:57.398Z,17.94
2017-06-02T00:14:23.757Z,18.82
2017-06-02T00:16:50.101Z,19.43
2017-06-02T00:19:16.510Z,18.47
2017-06-02T00:21:42.883Z,17.70
2017-06-02T00:24:09.206Z,18.20
2017-06-02T00:26:35.595Z,19.51
2017-06-02T00:29:01.954Z,20.52
2017-06-02T00:31:28.305Z,20.77
2017-06-02T00:33:54.684Z,20.60
2017-06-02T00:36:21.018Z,20.59
2017-06-02T00:38:47.381Z,19.90
2017-06-02T00:41:13.720Z,19.85
2017-06-02T00:43:40.047Z,19.58
2017-06-02T00:46:06.403Z,18.16
2017-06-02T00:48:32.736Z,17.88
2017-06-02T00:50:59.102Z,17.79
2017-06-02T00:53:25.572Z,18.05
2017-06-02T00:55:51.916Z,19.34
2017-06-02T00:58:18.256Z,18.57
2017-06-02T01:00:44.641Z,19.62
2017-06-02T01:03:11.021Z,20.51
2017-06-02T01:05:37.405Z,20.56
2017-06-02T01:08:03.739Z,20.43
2017-06-02T01:10:30.066Z,18.78
2017-06-02T01:12:56.413Z,17.98
2017-06-02T01:15:22.757Z,17.97
2017-06-02T01:17:49.079Z,18.55
2017-06-02T01:20:15.406Z,18.30
2017-06-02T01:22:41.742Z,18.12
2017-06-02T01:25:08.063Z,18.19
2017-06-02T01:27:34.394Z,20.03
2017-06-02T01:30:00.733Z,20.42
2017-06-02T01:32:27.109Z,19.96
2017-06-02T01:34:53.534Z,18.98
2017-06-02T01:37:19.891Z,18.93
2017-06-02T01:39:46.291Z,19.10
2017-06-02T01:42:12.652Z,18.40
2017-06-02T01:44:39.034Z,18.02
2017-06-02T01:47:05.388Z,18.61
2017-06-02T01:49:31.777Z,19.35
2017-06-02T01:51:58.112Z,19.74
2017-06-02T01:54:24.453Z,19.39
2017-06-02T01:56:50.906Z,20.06
2017-06-02T01:59:17.230Z,18.67
2017-06-02T02:01:43.635Z,18.46
2017-06-02T02:04:09.958Z,18.60
2017-06-02T02:06:36.329Z,18.22
2017-06-02T02:09:02.741Z,18.37
2017-06-02T02:11:29.132Z,17.99
2017-06-02T02:13:55.489Z,18.05
2017-06-02T02:16:22.074Z,17.97
2017-06-02T02:18:48.386Z,18.00
2017-06-02T02:21:14.734Z,17.89
2017-06-02T02:23:41.053Z,18.39
2017-06-02T02:26:07.444Z,18.64
2017-06-02T02:28:33.767Z,18.22
2017-06-02T02:31:00.148Z,18.23
2017-06-02T02:33:26.513Z,18.54
2017-06-02T02:35:52.902Z,18.85
2017-06-02T02:38:19.254Z,18.60
2017-06-02T02:40:45.569Z,18.00
2017-06-02T02:43:11.917Z,18.38
2017-06-02T02:45:38.261Z,19.26
2017-06-02T02:48:04.612Z,19.78
2017-06-02T02:50:30.960Z,19.13
2017-06-02T02:52:57.313Z,18.10
2017-06-02T02:55:23.642Z,18.15
2017-06-02T02:57:49.978Z,18.23
2017-06-02T03:00:16.320Z,18.84
2017-06-02T03:02:42.649Z,18.75
2017-06-02T03:05:08.993Z,18.29
2017-06-02T03:07:35.305Z,18.30
2017-06-02T03:10:01.658Z,18.23
2017-06-02T03:12:28.002Z,18.22
2017-06-02T03:14:54.333Z,18.14
2017-06-02T03:17:20.700Z,18.34
2017-06-02T03:19:47.019Z,18.16
2017-06-02T03:22:13.422Z,18.23
2017-06-02T03:24:39.826Z,18.99
2017-06-02T03:27:06.248Z,19.37
2017-06-02T03:29:32.571Z,19.94
2017-06-02T03:31:58.916Z,19.99
2017-06-02T03:34:25.260Z,19.57
2017-06-02T03:36:51.726Z,18.72
2017-06-02T03:39:18.107Z,18.41
2017-06-02T03:41:44.454Z,17.74
2017-06-02T03:44:10.809Z,18.03
2017-06-02T03:46:37.224Z,18.26
2017-06-02T03:49:03.575Z,18.49
2017-06-02T03:51:29.917Z,18.19
2017-06-02T03:53:56.256Z,18.45
2017-06-02T03:56:22.646Z,18.37
2017-06-02T03:58:48.971Z,18.47
2017-06-02T04:01:15.303Z,18.55
2017-06-02T04:03:41.636Z,18.80
2017-06-02T04:06:08.050Z,18.75
2017-06-02T04:08:34.417Z,18.49
2017-06-02T04:11:00.758Z,18.61
2017-06-02T04:13:27.099Z,18.95
2017-06-02T04:15:53.457Z,19.03
2017-06-02T04:18:19.791Z,19.71
2017-06-02T04:20:46.110Z,18.97
2017-06-02T04:23:12.449Z,18.24
2017-06-02T04:25:38.805Z,18.60
2017-06-02T04:28:05.122Z,18.49
2017-06-02T04:30:31.463Z,18.67
2017-06-02T04:32:57.802Z,18.62
2017-06-02T04:35:24.126Z,19.17
2017-06-02T04:37:50.469Z,18.90
2017-06-02T04:40:16.817Z,18.93
2017-06-02T04:42:43.139Z,18.96
2017-06-02T04:45:09.474Z,19.06
2017-06-02T04:47:35.836Z,19.02
2017-06-02T04:50:02.202Z,19.17
2017-06-02T04:52:28.544Z,19.40
2017-06-02T04:54:54.879Z,20.06
2017-06-02T04:57:21.227Z,20.06
2017-06-02T04:59:47.560Z,20.46
2017-06-02T05:02:13.946Z,20.43
2017-06-02T05:04:40.270Z,20.36
2017-06-02T05:07:06.597Z,20.51
2017-06-02T05:09:32.933Z,20.55
2017-06-02T05:11:59.296Z,20.15
2017-06-02T05:14:25.647Z,20.51
2017-06-02T05:16:52.007Z,20.60
2017-06-02T05:19:18.357Z,20.36
2017-06-02T05:21:44.718Z,20.54
2017-06-02T05:24:11.024Z,19.89
2017-06-02T05:26:37.401Z,19.34
2017-06-02T05:29:03.761Z,19.34
2017-06-02T05:31:30.122Z,19.87
2017-06-02T05:33:56.474Z,19.78
2017-06-02T05:36:22.800Z,20.52
2017-06-02T05:38:49.122Z,20.61
2017-06-02T05:41:15.558Z,19.94
2017-06-02T05:43:41.907Z,20.62
2017-06-02T05:46:08.267Z,20.46
2017-06-02T05:48:34.644Z,20.56
2017-06-02T05:51:01.014Z,20.41
2017-06-02T05:53:27.348Z,19.88
2017-06-02T05:55:53.672Z,20.08
2017-06-02T05:58:20.045Z,20.61
2017-06-02T06:00:46.487Z,20.27
2017-06-02T06:03:12.806Z,20.50
2017-06-02T06:05:39.165Z,20.74
2017-06-02T06:08:05.502Z,20.83
2017-06-02T06:10:31.845Z,20.80
2017-06-02T06:12:58.180Z,20.67
2017-06-02T06:15:24.554Z,20.79
2017-06-02T06:17:50.887Z,20.58
2017-06-02T06:20:17.199Z,20.90
2017-06-02T06:22:43.550Z,21.01
2017-06-02T06:25:09.925Z,20.93
2017-06-02T06:27:36.277Z,20.93
2017-06-02T06:30:02.634Z,21.15
2017-06-02T06:32:29.370Z,21.20
2017-06-02T06:34:55.725Z,21.29
2017-06-02T06:37:22.065Z,21.26
2017-06-02T06:39:48.408Z,21.34
2017-06-02T06:42:14.756Z,21.45
2017-06-02T06:44:41.090Z,21.17
2017-06-02T06:47:07.483Z,21.50
2017-06-02T06:49:33.807Z,21.54
2017-06-02T06:52:00.153Z,21.87
2017-06-02T06:54:26.503Z,21.89
2017-06-02T06:56:52.840Z,22.03
2017-06-02T06:59:19.201Z,22.09
2017-06-02T07:01:45.504Z,21.83
2017-06-02T07:04:11.832Z,22.22
2017-06-02T07:06:38.172Z,22.00
2017-06-02T07:09:04.569Z,22.25
2017-06-02T07:11:30.915Z,22.48
2017-06-02T07:13:57.272Z,22.31
2017-06-02T07:16:23.612Z,22.55
2017-06-02T07:18:50.357Z,22.51
2017-06-02T07:21:16.692Z,22.55
2017-06-02T07:23:43.013Z,22.94
2017-06-02T07:26:09.353Z,22.90
2017-06-02T07:28:36.121Z,23.25
2017-06-02T07:31:02.478Z,22.84
2017-06-02T07:33:28.890Z,23.42
2017-06-02T07:35:55.242Z,23.25
2017-06-02T07:38:21.930Z,23.26
2017-06-02T07:40:48.294Z,23.24
2017-06-02T07:43:14.621Z,23.14
2017-06-02T07:45:40.971Z,23.60
2017-06-02T07:48:07.308Z,23.46
2017-06-02T07:50:33.641Z,23.83
2017-06-02T07:53:00.022Z,23.74
2017-06-02T07:55:26.349Z,24.15
2017-06-02T07:57:52.688Z,24.21
2017-06-02T08:00:18.994Z,23.92
2017-06-02T08:02:45.335Z,23.79
2017-06-02T08:05:11.701Z,24.16
2017-06-02T08:07:38.036Z,23.70
2017-06-02T08:10:04.418Z,24.56
2017-06-02T08:12:30.744Z,24.80
2017-06-02T08:14:57.136Z,24.17
2017-06-02T08:17:23.486Z,24.44
2017-06-02T08:19:49.832Z,24.87
2017-06-02T08:22:16.165Z,24.37
2017-06-02T08:24:42.480Z,24.84
2017-06-02T08:27:08.820Z,24.32
2017-06-02T08:29:35.219Z,24.64
2017-06-02T08:32:01.604Z,25.10
2017-06-02T08:34:27.951Z,25.03
2017-06-02T08:36:54.271Z,25.52
2017-06-02T08:39:20.673Z,25.37
2017-06-02T08:41:46.978Z,25.49
2017-06-02T08:44:13.333Z,26.03
2017-06-02T08:46:39.662Z,26.14
2017-06-02T08:49:05.991Z,26.01
2017-06-02T08:51:32.341Z,26.16
2017-06-02T08:53:58.669Z,26.21
2017-06-02T08:56:25.012Z,26.57
2017-06-02T08:58:51.338Z,26.18
2017-06-02T09:01:17.665Z,26.37
2017-06-02T09:03:43.979Z,26.37
2017-06-02T09:06:10.344Z,26.45
2017-06-02T09:08:36.703Z,26.73
2017-06-02T09:11:03.041Z,26.91
2017-06-02T09:13:29.390Z,27.21
2017-06-02T09:15:55.738Z,27.54
2017-06-02T09:18:22.104Z,27.02
2017-06-02T09:20:48.439Z,27.62
2017-06-02T09:23:14.751Z,27.07
2017-06-02T09:25:41.115Z,27.56
2017-06-02T09:28:07.481Z,27.82
2017-06-02T09:30:33.830Z,27.55
2017-06-02T09:33:00.166Z,27.69
2017-06-02T09:35:26.542Z,27.95
2017-06-02T09:37:52.900Z,28.17
2017-06-02T09:40:19.247Z,27.50
2017-06-02T09:42:45.584Z,27.56
2017-06-02T09:45:11.917Z,27.72
2017-06-02T09:47:38.247Z,27.61
2017-06-02T09:50:04.573Z,27.97
2017-06-02T09:52:30.931Z,28.15
2017-06-02T09:54:57.318Z,28.26
2017-06-02T09:57:23.670Z,28.51
2017-06-02T09:59:49.997Z,28.74
2017-06-02T10:02:16.343Z,28.54
2017-06-02T10:04:42.694Z,28.83
2017-06-02T10:07:09.039Z,28.37
2017-06-02T10:09:36.158Z,28.70
2017-06-02T10:12:02.673Z,28.50
2017-06-02T10:14:29.035Z,28.45
2017-06-02T10:16:55.390Z,28.54
2017-06-02T10:19:21.898Z,28.05
2017-06-02T10:21:48.257Z,28.61
2017-06-02T10:24:15.108Z,28.50
2017-06-02T10:26:41.788Z,27.54
2017-06-02T10:29:08.954Z,27.26
2017-06-02T10:31:35.356Z,28.61
2017-06-02T10:34:01.676Z,29.10
2017-06-02T10:36:28.021Z,29.38
2017-06-02T10:38:54.373Z,29.03
2017-06-02T10:41:20.716Z,29.15
2017-06-02T10:43:47.089Z,29.36
2017-06-02T10:46:13.444Z,29.34
2017-06-02T10:48:39.775Z,29.25
2017-06-02T10:51:06.125Z,28.94
2017-06-02T10:53:32.490Z,29.51
2017-06-02T10:55:58.825Z,28.82
2017-06-02T10:58:25.182Z,29.28
2017-06-02T11:00:51.523Z,29.17
2017-06-02T11:03:17.880Z,28.55
2017-06-02T11:05:44.309Z,27.98
2017-06-02T11:08:10.640Z,28.59
2017-06-02T11:10:36.966Z,29.19
2017-06-02T11:13:03.321Z,29.40
2017-06-02T11:15:29.758Z,29.50
2017-06-02T11:17:56.101Z,29.63
2017-06-02T11:20:22.458Z,29.70
2017-06-02T11:22:48.838Z,30.05
2017-06-02T11:25:15.140Z,29.04
2017-06-02T11:27:41.494Z,29.49
2017-06-02T11:30:07.827Z,29.08
2017-06-02T11:32:34.165Z,29.02
2017-06-02T11:35:00.587Z,30.38
2017-06-02T11:37:26.949Z,29.53
2017-06-02T11:39:53.313Z,29.66
2017-06-02T11:42:19.642Z,29.94
2017-06-02T11:44:46.045Z,30.30
2017-06-02T11:47:12.387Z,30.76
2017-06-02T11:49:38.746Z,31.21
2017-06-02T11:52:05.090Z,32.41
2017-06-02T11:54:31.443Z,33.11
2017-06-02T11:56:57.840Z,32.61
2017-06-02T11:59:24.183Z,31.85
2017-06-02T12:01:50.542Z,31.76
2017-06-02T12:04:16.941Z,32.99
2017-06-02T12:06:43.356Z,34.35
2017-06-02T12:09:09.691Z,33.88
2017-06-02T12:11:36.055Z,33.35
2017-06-02T12:14:02.450Z,34.64
2017-06-02T12:16:28.794Z,33.83
2017-06-02T12:18:55.107Z,33.43
2017-06-02T12:21:21.432Z,34.50
2017-06-02T12:23:47.772Z,33.46
2017-06-02T12:26:14.080Z,33.22
2017-06-02T12:28:40.417Z,33.44
2017-06-02T12:31:06.831Z,33.36
2017-06-02T12:33:33.154Z,33.56
2017-06-02T12:35:59.495Z,33.24
2017-06-02T12:38:25.833Z,33.91
2017-06-02T12:40:52.188Z,32.66
2017-06-02T12:43:18.533Z,32.84
2017-06-02T12:45:44.837Z,33.45
2017-06-02T12:48:11.163Z,32.83
2017-06-02T12:50:37.510Z,32.07
2017-06-02T12:53:03.848Z,32.12
2017-06-02T12:55:30.195Z,32.93
2017-06-02T12:57:56.579Z,32.01
2017-06-02T13:00:22.936Z,31.89
2017-06-02T13:02:49.293Z,32.04
2017-06-02T13:05:15.606Z,32.97
2017-06-02T13:07:41.983Z,32.71
2017-06-02T13:10:08.369Z,31.30
2017-06-02T13:12:34.723Z,31.61
2017-06-02T13:15:01.066Z,31.85
2017-06-02T13:17:27.392Z,31.95
2017-06-02T13:19:53.738Z,31.23
2017-06-02T13:22:20.090Z,31.07
2017-06-02T13:24:46.442Z,31.34
2017-06-02T13:27:12.754Z,31.20
2017-06-02T13:29:39.100Z,30.58
2017-06-02T13:32:05.462Z,30.71
2017-06-02T13:34:31.792Z,30.77
2017-06-02T13:36:58.155Z,30.82
2017-06-02T13:39:24.519Z,30.97
2017-06-02T13:41:50.858Z,31.52
2017-06-02T13:44:17.196Z,31.49
2017-06-02T13:46:43.548Z,31.29
2017-06-02T13:49:09.863Z,31.28
2017-06-02T13:51:36.199Z,31.33
2017-06-02T13:54:02.530Z,31.13
2017-06-02T13:56:28.886Z,32.28
2017-06-02T13:58:55.253Z,31.46
2017-06-02T14:01:21.597Z,31.46
2017-06-02T14:03:47.911Z,30.98
2017-06-02T14:06:14.246Z,30.92
2017-06-02T14:08:40.634Z,30.72
2017-06-02T14:11:06.984Z,30.68
2017-06-02T14:13:33.351Z,30.47
2017-06-02T14:15:59.757Z,30.00
2017-06-02T14:18:26.133Z,30.61
2017-06-02T14:20:52.507Z,30.37
2017-06-02T14:23:18.852Z,30.38
2017-06-02T14:25:45.227Z,30.96
2017-06-02T14:28:11.573Z,30.89
2017-06-02T14:30:37.926Z,30.46
2017-06-02T14:33:04.253Z,29.71
2017-06-02T14:35:30.669Z,30.15
2017-06-02T14:37:56.989Z,30.04
2017-06-02T14:40:23.323Z,30.51
2017-06-02T14:42:49.700Z,30.78
2017-06-02T14:45:16.074Z,30.83
2017-06-02T14:47:42.427Z,30.71
2017-06-02T14:50:08.754Z,30.48
2017-06-02T14:52:35.106Z,30.33
2017-06-02T14:55:01.468Z,30.14
2017-06-02T14:57:27.831Z,30.51
2017-06-02T14:59:54.200Z,29.94
2017-06-02T15:02:20.519Z,30.15
2017-06-02T15:04:46.916Z,30.26
2017-06-02T15:07:13.275Z,30.30
2017-06-02T15:09:39.598Z,30.21
2017-06-02T15:12:05.952Z,30.27
2017-06-02T15:14:32.298Z,30.49
2017-06-02T15:16:58.644Z,30.75
2017-06-02T15:19:24.976Z,29.99
2017-06-02T15:21:51.355Z,30.13
2017-06-02T15:24:17.676Z,29.79
2017-06-02T15:26:44.579Z,29.82
2017-06-02T15:29:10.918Z,29.92
2017-06-02T15:31:37.274Z,29.69
2017-06-02T15:34:03.643Z,29.24
2017-06-02T15:36:29.987Z,29.04
2017-06-02T15:38:56.373Z,29.07
2017-06-02T15:41:22.796Z,28.91
2017-06-02T15:43:49.141Z,29.14
2017-06-02T15:46:23.518Z,28.99
2017-06-02T15:48:59.628Z,28.98
2017-06-02T15:51:32.326Z,29.14
2017-06-02T15:54:02.896Z,29.15
2017-06-02T15:56:29.868Z,28.68
2017-06-02T15:58:56.204Z,28.60
2017-06-02T16:01:22.582Z,28.53
2017-06-02T16:03:48.928Z,28.77
2017-06-02T16:06:15.279Z,28.72
2017-06-02T16:08:41.681Z,29.21
2017-06-02T16:11:08.033Z,29.24
2017-06-02T16:13:34.973Z,29.24
2017-06-02T16:16:01.328Z,29.40
2017-06-02T16:18:28.445Z,29.32
2017-06-02T16:20:55.113Z,29.02
2017-06-02T16:23:22.027Z,28.93
2017-06-02T16:25:48.366Z,28.78
2017-06-02T16:28:14.702Z,28.64
2017-06-02T16:30:41.660Z,28.75
2017-06-02T16:33:08.049Z,28.72
2017-06-02T16:35:34.515Z,28.71
2017-06-02T16:38:01.297Z,28.54
2017-06-02T16:40:27.731Z,28.74
2017-06-02T16:42:54.083Z,28.94
2017-06-02T16:45:21.286Z,28.64
2017-06-02T16:47:47.631Z,28.73
2017-06-02T16:50:14.637Z,28.97
2017-06-02T16:52:41.732Z,28.85
2017-06-02T16:55:08.214Z,28.82
2017-06-02T16:57:36.446Z,28.64
2017-06-02T17:00:04.334Z,28.40
2017-06-02T17:02:30.833Z,28.36
2017-06-02T17:04:57.352Z,28.23
2017-06-02T17:07:24.567Z,28.27
2017-06-02T17:09:51.541Z,28.12
2017-06-02T17:12:18.768Z,28.05
2017-06-02T17:14:45.882Z,28.07
2017-06-02T17:17:12.239Z,27.82
2017-06-02T17:19:38.610Z,27.73
2017-06-02T17:22:05.045Z,27.83
2017-06-02T17:24:31.421Z,27.84
2017-06-02T17:26:57.845Z,27.68
2017-06-02T17:29:24.907Z,27.60
2017-06-02T17:31:51.573Z,27.55
2017-06-02T17:34:17.962Z,27.53
2017-06-02T17:36:46.123Z,27.06
2017-06-02T17:39:12.536Z,27.18
2017-06-02T17:41:39.115Z,27.13
2017-06-02T17:44:05.672Z,27.02
2017-06-02T17:46:33.500Z,26.72
2017-06-02T17:48:59.977Z,27.03
2017-06-02T17:51:26.404Z,27.13
2017-06-02T17:53:52.763Z,27.22
2017-06-02T17:56:19.170Z,27.37
2017-06-02T17:58:45.610Z,27.42
2017-06-02T18:01:12.081Z,27.56
2017-06-02T18:03:38.458Z,27.24
2017-06-02T18:06:04.829Z,27.14
2017-06-02T18:08:31.179Z,26.63
2017-06-02T18:10:57.566Z,26.22
2017-06-02T18:13:23.911Z,26.36
2017-06-02T18:15:50.330Z,26.21
2017-06-02T18:18:16.683Z,26.10
2017-06-02T18:20:43.072Z,26.43
2017-06-02T18:23:09.482Z,26.34
2017-06-02T18:25:35.878Z,25.95
2017-06-02T18:28:02.333Z,25.72
2017-06-02T18:30:28.715Z,25.49
2017-06-02T18:32:55.084Z,24.90
2017-06-02T18:35:21.499Z,24.10
2017-06-02T18:37:47.860Z,24.27
2017-06-02T18:40:14.436Z,24.11
2017-06-02T18:42:40.947Z,24.24
2017-06-02T18:45:07.344Z,24.75
2017-06-02T18:47:33.740Z,24.41
2017-06-02T18:50:00.085Z,24.61
2017-06-02T18:52:26.486Z,24.42
2017-06-02T18:54:52.855Z,24.45
2017-06-02T18:57:19.284Z,24.55
2017-06-02T18:59:46.431Z,23.66
2017-06-02T19:02:24.012Z,24.13
2017-06-02T19:07:31.283Z,23.48
2017-06-02T19:09:57.852Z,23.38
2017-06-02T19:12:24.252Z,23.88
2017-06-02T19:14:50.649Z,22.37
2017-06-02T19:17:17.072Z,22.96
2017-06-02T19:19:43.535Z,22.72
2017-06-02T19:22:09.892Z,22.66
2017-06-02T19:24:37.473Z,22.79
2017-06-02T19:27:04.018Z,21.98
2017-06-02T19:29:30.925Z,21.76
2017-06-02T19:31:57.310Z,22.69
2017-06-02T19:34:23.840Z,22.22
2017-06-02T19:36:50.187Z,22.04
2017-06-02T19:39:16.583Z,23.31
2017-06-02T19:41:42.970Z,23.80
2017-06-02T19:44:09.459Z,24.00
2017-06-02T19:46:35.897Z,24.03
2017-06-02T19:49:02.275Z,23.63
2017-06-02T19:51:28.644Z,22.19
2017-06-02T19:53:55.144Z,22.43
2017-06-02T19:56:21.553Z,22.53
2017-06-02T19:58:48.012Z,22.68
2017-06-02T20:01:14.421Z,22.52
2017-06-02T20:03:40.828Z,22.18
2017-06-02T20:06:07.250Z,22.21
2017-06-02T20:08:33.587Z,21.90
2017-06-02T20:11:00.110Z,21.48
2017-06-02T20:13:27.038Z,21.78
2017-06-02T20:15:53.460Z,21.88
2017-06-02T20:18:19.853Z,22.91
2017-06-02T20:20:46.312Z,23.69
2017-06-02T20:23:12.800Z,23.75
2017-06-02T20:25:39.225Z,23.52
2017-06-02T20:39:00.139Z,22.94
2017-06-02T20:41:26.533Z,22.69
2017-06-02T20:43:52.897Z,23.00
2017-06-02T20:46:19.275Z,22.50
2017-06-02T20:48:45.656Z,21.36
2017-06-02T20:51:12.072Z,21.10
2017-06-02T20:53:45.647Z,20.70
2017-06-02T20:56:19.457Z,20.83
2017-06-02T20:58:45.849Z,22.04
2017-06-02T21:01:12.629Z,22.39
2017-06-02T21:03:39.058Z,22.85
2017-06-02T21:06:05.421Z,23.23
2017-06-02T21:08:31.760Z,23.06
2017-06-02T21:10:58.117Z,23.14
2017-06-02T21:13:24.485Z,23.00
2017-06-02T21:15:50.813Z,22.92
2017-06-02T21:18:17.275Z,22.70
2017-06-02T21:20:43.671Z,21.61
2017-06-02T21:23:10.033Z,20.72
2017-06-02T21:25:36.404Z,21.01
2017-06-02T21:28:02.774Z,21.87
2017-06-02T21:30:29.204Z,22.74
2017-06-02T21:32:55.584Z,22.69
2017-06-02T21:35:21.935Z,22.49
2017-06-02T21:37:48.299Z,22.17
2017-06-02T21:40:14.677Z,20.38
2017-06-02T21:42:41.069Z,20.26
2017-06-02T21:45:07.460Z,20.36
2017-06-02T21:47:33.794Z,20.24
2017-06-02T21:50:00.199Z,20.04
2017-06-02T21:52:26.585Z,19.94
2017-06-02T21:54:52.972Z,20.81
2017-06-02T21:57:19.354Z,20.62
2017-06-02T21:59:45.736Z,20.10
2017-06-02T22:02:12.125Z,19.84
2017-06-02T22:04:38.622Z,20.45
2017-06-02T22:07:05.023Z,21.97
2017-06-02T22:09:31.355Z,20.98
2017-06-02T22:11:57.828Z,21.24
2017-06-02T22:14:24.331Z,22.24
2017-06-02T22:16:50.671Z,22.27
2017-06-02T22:19:17.051Z,22.30
2017-06-02T22:21:43.428Z,22.02
2017-06-02T22:24:09.739Z,21.66
2017-06-02T22:26:36.070Z,21.89
2017-06-02T22:29:02.398Z,22.08
2017-06-02T22:31:28.802Z,21.45
2017-06-02T22:33:55.958Z,21.26
2017-06-02T22:36:22.852Z,21.95
2017-06-02T22:38:49.173Z,21.88
2017-06-02T22:41:16.020Z,21.28
2017-06-02T22:43:42.383Z,21.87
2017-06-02T22:46:15.323Z,21.83
2017-06-02T22:48:49.308Z,21.25
2017-06-02T22:51:32.594Z,21.23
2017-06-02T22:54:06.542Z,21.95
2017-06-02T22:56:39.538Z,21.81
2017-06-02T22:59:12.331Z,21.69
2017-06-02T23:01:45.669Z,21.72
2017-06-02T23:04:19.259Z,21.84
2017-06-02T23:06:52.087Z,21.76
2017-06-02T23:09:26.264Z,21.68
2017-06-02T23:12:06.796Z,20.61
2017-06-02T23:14:39.843Z,19.48
2017-06-02T23:17:25.711Z,20.79
2017-06-02T23:19:58.850Z,21.59
2017-06-02T23:22:32.679Z,21.75
2017-06-02T23:25:06.538Z,21.15
2017-06-02T23:27:39.167Z,20.85
2017-06-02T23:30:12.001Z,21.44
2017-06-02T23:32:48.718Z,21.54
2017-06-02T23:35:21.587Z,21.84
2017-06-02T23:37:55.647Z,21.13
2017-06-02T23:40:29.401Z,20.94
2017-06-02T23:43:03.034Z,19.40
2017-06-02T23:45:36.910Z,19.81
2017-06-02T23:48:10.413Z,20.49
2017-06-02T23:50:36.736Z,19.98
2017-06-02T23:53:03.086Z,19.76
2017-06-02T23:55:29.436Z,19.90
2017-06-02T23:58:02.356Z,21.11
